ADDS METAR Data INFO
IDs: Format: Raw Decoded Include TAF

Data at: 2054 UTC 24 Jun 2017

KPRS 242035Z AUTO 04010G21KT 10SM SCT075 36/16 A3006 RMK AO2 T03580156
KPRS 242015Z AUTO 06013G24KT 10SM CLR 35/16 A3007 RMK AO2 T03540155
KPRS 241955Z AUTO 05014G25KT 10SM SCT075 36/16 A3007 RMK AO2 T03570156
KPRS 241935Z AUTO 04014G26KT 10SM CLR 36/16 A3007 RMK AO2 T03570156
KPRS 241915Z AUTO 05014G21KT 10SM CLR 36/16 A3007 RMK AO2 T03590156
KPRS 241855Z AUTO 05018G26KT 10SM SCT075 36/16 A3007 RMK AO2 T03570157
KPRS 241835Z AUTO 05014G21KT 10SM SCT075 36/15 A3007 RMK AO2 T03550153
KPRS 241815Z AUTO 06014G22KT 10SM CLR 36/15 A3008 RMK AO2 T03560154
KPRS 241755Z AUTO 05012G20KT 10SM CLR 35/16 A3008 RMK AO2 T03500156 10350 20253
KPRS 241735Z AUTO 05010KT 10SM CLR 35/16 A3009 RMK AO2 T03460155
KPRS 241715Z AUTO 07006G14KT 10SM CLR 34/15 A3009 RMK AO2 T03410153
KPRS 241655Z AUTO 04010G19KT 10SM CLR 33/16 A3009 RMK AO2 T03320156
KPRS 241635Z AUTO 05009G15KT 10SM CLR 33/16 A3009 RMK AO2 T03270158
KPRS 241615Z AUTO 06012G17KT 10SM CLR 32/16 A3009 RMK AO2 T03200156
KPRS 241555Z AUTO 03004KT 10SM CLR 31/15 A3008 RMK AO2 T03140154
KPRS 241535Z AUTO 08007KT 10SM CLR 31/16 A3007 RMK AO2 T03080156
KPRS 241515Z AUTO 05006KT 10SM CLR 31/16 A3007 RMK AO2 T03070157
KPRS 241455Z AUTO 05007KT 10SM CLR 30/16 A3007 RMK AO2 T03000158
KPRS 241435Z AUTO 04009KT 10SM CLR 29/16 A3008 RMK AO2 T02940155
KPRS 241415Z AUTO 06008KT 10SM CLR 29/15 A3007 RMK AO2 T02890153
KPRS 241355Z AUTO 02007KT 10SM CLR 28/15 A3006 RMK AO2 T02830150
KPRS 241335Z AUTO 02007KT 10SM CLR 27/15 A3006 RMK AO2 T02730150
KPRS 241315Z AUTO 36007KT 300V020 10SM CLR 27/15 A3004 RMK AO2 T02650150
KPRS 241255Z AUTO 01008KT 10SM CLR 26/15 A3004 RMK AO2 T02580148
KPRS 241235Z AUTO 01008KT 10SM CLR 25/15 A3004 RMK AO2 T02540147
KPRS 241215Z AUTO 02006KT 10SM CLR 26/15 A3003 RMK AO2 T02550148
KPRS 241155Z AUTO 03006KT 10SM CLR 26/15 A3003 RMK AO2 T02550148 10310 20255
KPRS 241135Z AUTO 02007KT 10SM CLR 26/15 A3002 RMK AO2 T02570148
KPRS 241115Z AUTO 03011KT 10SM CLR 26/15 A3002 RMK AO2 T02600150
KPRS 241055Z AUTO 04011G18KT 10SM CLR 26/15 A3001 RMK AO2 T02620150
KPRS 241035Z AUTO 03011G15KT 10SM CLR 27/15 A3000 RMK AO2 T02650151
KPRS 241015Z AUTO 03007KT 10SM CLR 27/15 A3000 RMK AO2 T02700151
KPRS 240955Z AUTO 03013G17KT 10SM CLR 27/15 A2999 RMK AO2 T02730150
KPRS 240935Z AUTO 03012KT 10SM CLR 28/15 A2998 RMK AO2 T02800146
KPRS 240915Z AUTO 04011G17KT 10SM CLR 28/15 A2999 RMK AO2 T02800150
KPRS 240855Z AUTO 03006KT 10SM CLR 28/15 A3000 RMK AO2 LTG DSNT S T02770154
KPRS 240835Z AUTO 04007KT 10SM CLR 28/16 A2999 RMK AO2 T02750157
KPRS 240815Z AUTO 14006G14KT 10SM CLR 28/16 A3000 RMK AO2 T02750160
KPRS 240755Z AUTO 15005KT 10SM CLR 29/16 A3000 RMK AO2 LTG DSNT S T02870157
KPRS 240735Z AUTO 15008G19KT 10SM VCTS CLR 29/16 A2999 RMK AO2 LTG DSNT SE T02900155
KPRS 240715Z AUTO 09014G28KT 10SM CLR 30/14 A2998 RMK AO2 LTG DSNT SE T03000142
KPRS 240655Z AUTO 08010G23KT 10SM CLR 30/14 A3000 RMK AO2 LTG DSNT E AND SE T03020141
KPRS 240635Z AUTO 10020G28KT 10SM CLR 30/15 A2998 RMK AO2 LTG DSNT E AND SE T02990150
KPRS 240615Z AUTO 09023G34KT 10SM CLR 31/14 A2996 RMK AO2 LTG DSNT NE AND SE T03050144
KPRS 240555Z AUTO 07028G36KT 10SM CLR 31/14 A2996 RMK AO2 LTG DSNT SE THRU SW T03100144 10394 20303 404370303
KPRS 240535Z AUTO 06026G38KT 10SM CLR 31/15 A2996 RMK AO2 LTG DSNT SE T03110145
KPRS 240515Z AUTO 02025G38KT 10SM CLR 31/14 A2997 RMK AO2 LTG DSNT E AND SE T03110142
KPRS 240455Z AUTO 01025G36KT 10SM CLR 32/14 A2996 RMK AO2 LTG DSNT NE AND S T03180139
KPRS 240435Z AUTO 01029G41KT 10SM CLR 32/13 A2995 RMK AO2 T03200132
KPRS 240415Z AUTO 01021G39KT 10SM -RA CLR 30/14 A2993 RMK AO2 LTG DSNT E T03030142
KPRS 240355Z AUTO 01028G43KT 10SM CLR 33/12 A2991 RMK AO2 LTG DSNT SE T03270117
KPRS 240335Z AUTO 01026G33KT 10SM CLR 34/11 A2992 RMK AO2 LTG DSNT NE T03440111
KPRS 240315Z AUTO 23004KT 10SM CLR 37/08 A2987 RMK AO2 LTG DSNT NE AND S T03650077
KPRS 240255Z AUTO 23011G14KT 10SM CLR 37/08 A2984 RMK AO2 T03660076
KPRS 240235Z AUTO 24008KT 10SM CLR 37/07 A2983 RMK AO2 LTG DSNT NE T03730070
KPRS 240215Z AUTO 26006KT 10SM CLR 38/06 A2982 RMK AO2 T03770064
KPRS 240155Z AUTO 35008G16KT 10SM CLR 38/07 A2980 RMK AO2 LTG DSNT W T03750065
KPRS 240135Z AUTO 36012G19KT 10SM CLR 37/07 A2979 RMK AO2 T03690072
KPRS 240115Z AUTO 36019G31KT 10SM CLR 37/07 A2978 RMK AO2 T03690069
KPRS 240055Z AUTO 35023G30KT 10SM CLR 37/07 A2978 RMK AO2 LTG DSNT NW T03710073
KPRS 240035Z AUTO 35022G32KT 10SM CLR 38/07 A2977 RMK AO2 T03830070
KPRS 240015Z AUTO 36023G35KT 10SM CLR 39/07 A2976 RMK AO2 T03900073
KPRS 232355Z AUTO 35026G37KT 10SM CLR 39/08 A2976 RMK AO2 T03900081 10437 20390
KPRS 232335Z AUTO 03008G17KT 10SM CLR 43/06 A2975 RMK AO2 T04250061
KPRS 232315Z AUTO 02009KT 10SM CLR 44/06 A2975 RMK AO2 T04370062
KPRS 232255Z AUTO 07004KT 10SM CLR 43/06 A2975 RMK AO2 LTG DSNT N T04280061
KPRS 232235Z AUTO 05014G18KT 10SM CLR 43/07 A2975 RMK AO2 LTG DSNT N T04330066
KPRS 232215Z AUTO 11006KT 10SM CLR 43/07 A2975 RMK AO2 T04330070
KPRS 232155Z AUTO 33010G14KT 10SM CLR 43/07 A2976 RMK AO2 T04330068
KPRS 232135Z AUTO 03005KT 10SM CLR 43/07 A2977 RMK AO2 LTG DSNT NE T04260071
KPRS 232115Z AUTO 03005KT 10SM CLR 42/07 A2978 RMK AO2 T04190067
KPRS 232055Z AUTO 04005KT 10SM CLR 42/07 A2979 RMK AO2 T04180070
KPRS 232035Z AUTO 05007KT 10SM CLR 41/08 A2980 RMK AO2 T04140076
KPRS 232015Z AUTO 10006G16KT 10SM CLR 43/08 A2981 RMK AO2 T04300082
KPRS 231955Z AUTO 06011G17KT 10SM CLR 44/08 A2981 RMK AO2 T04360084
KPRS 231935Z AUTO 01007KT 10SM CLR 42/09 A2981 RMK AO2 T04230092
KPRS 231915Z AUTO 15004KT 10SM CLR 42/09 A2982 RMK AO2 T04190088
KPRS 231855Z AUTO 11003KT 10SM CLR 42/08 A2983 RMK AO2 LTG DSNT N T04160082
KPRS 231835Z AUTO 00000KT 10SM CLR 41/09 A2983 RMK AO2 T04090092
KPRS 231815Z AUTO 13004KT 10SM CLR 40/10 A2983 RMK AO2 T03970101
KPRS 231755Z AUTO 11004KT 10SM CLR 40/10 A2984 RMK AO2 T03980102 10398 20306
KPRS 231735Z AUTO 00000KT 10SM CLR 40/10 A2984 RMK AO2 T03950101
KPRS 231715Z AUTO 00000KT 10SM CLR 39/10 A2984 RMK AO2 T03850102
KPRS 231655Z AUTO 01006KT 10SM CLR 38/10 A2984 RMK AO2 T03800103
KPRS 231635Z AUTO 04008KT 10SM CLR 38/10 A2984 RMK AO2 T03790103
KPRS 231615Z AUTO 13003KT 10SM CLR 37/10 A2985 RMK AO2 T03700104
KPRS 231555Z AUTO 12007KT 10SM CLR 36/11 A2984 RMK AO2 T03630105
KPRS 231535Z AUTO 08006KT 10SM CLR 36/11 A2984 RMK AO2 T03610107
KPRS 231515Z AUTO 08004KT 10SM CLR 35/10 A2984 RMK AO2 T03540103
KPRS 231455Z AUTO 00000KT 10SM CLR 35/11 A2984 RMK AO2 T03490105
KPRS 231435Z AUTO 00000KT 10SM CLR 34/11 A2983 RMK AO2 T03410108
KPRS 231415Z AUTO 00000KT 10SM CLR 34/11 A2983 RMK AO2 T03370112
KPRS 231355Z AUTO 05003KT 10SM CLR 34/12 A2983 RMK AO2 T03360116
KPRS 231335Z AUTO 04004KT 10SM CLR 33/12 A2983 RMK AO2 T03250116
KPRS 231315Z AUTO 02007KT 10SM CLR 32/12 A2982 RMK AO2 T03230115
KPRS 231255Z AUTO 02006KT 10SM CLR 31/11 A2981 RMK AO2 T03140113
KPRS 231235Z AUTO 04006KT 10SM CLR 31/11 A2981 RMK AO2 T03090112
KPRS 231215Z AUTO 05005KT 10SM CLR 31/11 A2981 RMK AO2 T03070109
KPRS 231155Z AUTO 00000KT 10SM CLR 31/11 A2980 RMK AO2 T03140106 10361 20313
KPRS 231135Z AUTO 00000KT 10SM CLR 32/10 A2979 RMK AO2 T03210102
KPRS 231115Z AUTO 10003KT 10SM CLR 34/09 A2979 RMK AO2 T03430090
KPRS 231055Z AUTO 36006KT 10SM CLR 33/10 A2979 RMK AO2 T03330101
KPRS 231035Z AUTO 23017G24KT 10SM CLR 35/09 A2977 RMK AO2 T03540085
KPRS 231015Z AUTO 26019G32KT 10SM SCT120 36/08 A2978 RMK AO2 T03550081
KPRS 230955Z AUTO 27007KT 10SM SCT120 33/11 A2981 RMK AO2 T03300105
KPRS 230935Z AUTO 01008KT 10SM CLR 33/10 A2980 RMK AO2 T03270104
KPRS 230915Z AUTO 02009KT 10SM CLR 32/11 A2978 RMK AO2 T03200106
KPRS 230855Z AUTO 05004KT 10SM CLR 32/11 A2977 RMK AO2 T03180105


Page loaded:  20:54 UTC  |   01:54 PM Pacific  |   02:54 PM Mountain  |   03:54 PM Central  |   04:54 PM Eastern

 

ADVISORIES

FORECASTS

FORECASTS

OBSERVATIONS

USER TOOLS

ABOUT US